CheckWX is a tool to help pilots better visualize weather data.  It is not intended as a substitute for an official pre-flight weather briefing.

22:09:15 UTC

EGNX METAR
East Midlands Airport
Nottingham, United Kingdom
Current

19 mins ago

EGNX 202150Z 26007KT 9999 FEW038 14/10 Q1014
Observed
Jul-20 @ 21:50 UTC
Wind
  • 260° at 7 KTS
Visibility
10,000+ meters
Flight Rules
VFR
Cloud Levels
  • Few at 3,800' AGL
Temperature
14°C / 57°F
Dewpoint
10°C / 50°F
Humidity
77%
Altimeter
29.94" Hg
Pressure
1013.92 hPa
Previous

1 hour ago

EGNX 202050Z 26009KT 9999 FEW034 16/10 Q1013
Observed
Jul-20 @ 20:50 UTC
Wind
  • 260° at 9 KTS
Visibility
10,000+ meters
Flight Rules
VFR
Cloud Levels
  • Few at 3,400' AGL
Temperature
16°C / 61°F
Dewpoint
10°C / 50°F
Humidity
68%
Altimeter
29.91" Hg
Pressure
1012.92 hPa
Previous

2 hours ago

EGNX 202020Z 26009KT 9999 BKN048 16/10 Q1013
Observed
Jul-20 @ 20:20 UTC
Wind
  • 260° at 9 KTS
Visibility
10,000+ meters
Flight Rules
VFR
Cloud Levels
  • Broken at 4,800' AGL
Temperature
16°C / 61°F
Dewpoint
10°C / 50°F
Humidity
68%
Altimeter
29.91" Hg
Pressure
1012.92 hPa